sensor_id;sensor_type;location;lat;lon;timestamp;P1;durP1;ratioP1;P2;durP2;ratioP2
13985;SDS011;7067;51.832;8.296;2022-08-19T00:01:17;11.35;;;7.55;;
13985;SDS011;7067;51.832;8.296;2022-08-19T00:03:43;8.43;;;7.20;;
13985;SDS011;7067;51.832;8.296;2022-08-19T00:06:08;12.13;;;8.15;;
13985;SDS011;7067;51.832;8.296;2022-08-19T00:08:34;9.43;;;8.48;;
13985;SDS011;7067;51.832;8.296;2022-08-19T00:11:00;8.18;;;7.38;;
13985;SDS011;7067;51.832;8.296;2022-08-19T00:13:25;10.30;;;7.78;;
13985;SDS011;7067;51.832;8.296;2022-08-19T00:15:53;9.68;;;7.75;;
13985;SDS011;7067;51.832;8.296;2022-08-19T00:18:19;9.07;;;7.28;;
13985;SDS011;7067;51.832;8.296;2022-08-19T00:20:44;9.10;;;7.47;;
13985;SDS011;7067;51.832;8.296;2022-08-19T00:23:10;9.10;;;8.00;;
13985;SDS011;7067;51.832;8.296;2022-08-19T00:25:35;12.38;;;8.23;;
13985;SDS011;7067;51.832;8.296;2022-08-19T00:28:01;9.10;;;8.13;;
13985;SDS011;7067;51.832;8.296;2022-08-19T00:30:27;8.32;;;7.55;;
13985;SDS011;7067;51.832;8.296;2022-08-19T00:32:53;10.43;;;8.00;;
13985;SDS011;7067;51.832;8.296;2022-08-19T00:35:20;10.40;;;8.13;;
13985;SDS011;7067;51.832;8.296;2022-08-19T00:37:46;7.90;;;7.30;;
13985;SDS011;7067;51.832;8.296;2022-08-19T00:40:13;8.80;;;8.02;;
13985;SDS011;7067;51.832;8.296;2022-08-19T00:42:39;9.45;;;8.50;;
13985;SDS011;7067;51.832;8.296;2022-08-19T00:45:09;9.85;;;8.07;;
13985;SDS011;7067;51.832;8.296;2022-08-19T00:47:36;8.82;;;8.05;;
13985;SDS011;7067;51.832;8.296;2022-08-19T00:50:02;10.27;;;8.57;;
13985;SDS011;7067;51.832;8.296;2022-08-19T00:52:30;9.32;;;8.52;;
13985;SDS011;7067;51.832;8.296;2022-08-19T00:54:58;9.50;;;8.60;;
13985;SDS011;7067;51.832;8.296;2022-08-19T00:57:32;12.63;;;8.98;;
13985;SDS011;7067;51.832;8.296;2022-08-19T01:00:00;10.88;;;8.80;;
13985;SDS011;7067;51.832;8.296;2022-08-19T01:02:27;12.55;;;9.57;;
13985;SDS011;7067;51.832;8.296;2022-08-19T01:04:53;9.48;;;8.63;;
13985;SDS011;7067;51.832;8.296;2022-08-19T01:07:18;8.80;;;7.90;;
13985;SDS011;7067;51.832;8.296;2022-08-19T01:09:43;12.52;;;7.90;;
13985;SDS011;7067;51.832;8.296;2022-08-19T01:12:09;9.73;;;8.70;;
13985;SDS011;7067;51.832;8.296;2022-08-19T01:14:34;10.63;;;8.20;;
13985;SDS011;7067;51.832;8.296;2022-08-19T01:17:01;11.50;;;9.32;;
13985;SDS011;7067;51.832;8.296;2022-08-19T01:19:28;11.95;;;8.77;;
13985;SDS011;7067;51.832;8.296;2022-08-19T01:21:58;10.45;;;9.55;;
13985;SDS011;7067;51.832;8.296;2022-08-19T01:24:26;11.15;;;10.07;;
13985;SDS011;7067;51.832;8.296;2022-08-19T01:26:51;15.55;;;11.27;;
13985;SDS011;7067;51.832;8.296;2022-08-19T01:29:17;12.68;;;9.88;;
13985;SDS011;7067;51.832;8.296;2022-08-19T01:31:43;12.13;;;10.80;;
13985;SDS011;7067;51.832;8.296;2022-08-19T01:34:08;11.85;;;10.27;;
13985;SDS011;7067;51.832;8.296;2022-08-19T01:36:40;12.30;;;9.55;;
13985;SDS011;7067;51.832;8.296;2022-08-19T01:39:09;12.65;;;10.23;;
13985;SDS011;7067;51.832;8.296;2022-08-19T01:41:38;15.70;;;9.85;;
13985;SDS011;7067;51.832;8.296;2022-08-19T01:44:04;15.80;;;10.77;;
13985;SDS011;7067;51.832;8.296;2022-08-19T01:46:31;11.27;;;10.23;;
13985;SDS011;7067;51.832;8.296;2022-08-19T01:48:57;12.85;;;11.40;;
13985;SDS011;7067;51.832;8.296;2022-08-19T01:51:22;11.77;;;10.13;;
13985;SDS011;7067;51.832;8.296;2022-08-19T01:53:48;10.38;;;9.65;;
13985;SDS011;7067;51.832;8.296;2022-08-19T01:56:15;11.48;;;9.50;;
13985;SDS011;7067;51.832;8.296;2022-08-19T01:58:42;12.60;;;10.73;;
13985;SDS011;7067;51.832;8.296;2022-08-19T02:01:11;13.10;;;11.10;;
13985;SDS011;7067;51.832;8.296;2022-08-19T02:03:37;13.52;;;11.65;;
13985;SDS011;7067;51.832;8.296;2022-08-19T02:06:03;14.27;;;12.88;;
13985;SDS011;7067;51.832;8.296;2022-08-19T02:08:30;14.45;;;13.10;;
13985;SDS011;7067;51.832;8.296;2022-08-19T02:10:56;14.75;;;13.30;;
13985;SDS011;7067;51.832;8.296;2022-08-19T02:13:22;17.10;;;15.40;;
13985;SDS011;7067;51.832;8.296;2022-08-19T02:15:50;16.80;;;14.77;;
13985;SDS011;7067;51.832;8.296;2022-08-19T02:18:15;16.55;;;14.40;;
13985;SDS011;7067;51.832;8.296;2022-08-19T02:20:41;17.67;;;15.63;;
13985;SDS011;7067;51.832;8.296;2022-08-19T02:23:08;17.13;;;14.95;;
13985;SDS011;7067;51.832;8.296;2022-08-19T02:25:34;16.90;;;15.05;;
13985;SDS011;7067;51.832;8.296;2022-08-19T02:27:59;15.45;;;14.10;;
13985;SDS011;7067;51.832;8.296;2022-08-19T02:30:25;15.40;;;13.93;;
13985;SDS011;7067;51.832;8.296;2022-08-19T02:32:51;17.60;;;13.38;;
13985;SDS011;7067;51.832;8.296;2022-08-19T02:35:17;15.90;;;14.52;;
13985;SDS011;7067;51.832;8.296;2022-08-19T02:37:42;14.13;;;12.82;;
13985;SDS011;7067;51.832;8.296;2022-08-19T02:40:27;16.55;;;14.20;;
13985;SDS011;7067;51.832;8.296;2022-08-19T02:42:54;18.60;;;16.05;;
13985;SDS011;7067;51.832;8.296;2022-08-19T02:45:19;16.70;;;14.75;;
13985;SDS011;7067;51.832;8.296;2022-08-19T02:47:45;17.13;;;15.50;;
13985;SDS011;7067;51.832;8.296;2022-08-19T02:50:10;19.15;;;15.52;;
13985;SDS011;7067;51.832;8.296;2022-08-19T02:52:36;20.20;;;15.77;;
13985;SDS011;7067;51.832;8.296;2022-08-19T02:55:01;17.75;;;16.13;;
13985;SDS011;7067;51.832;8.296;2022-08-19T02:57:27;16.27;;;14.90;;
13985;SDS011;7067;51.832;8.296;2022-08-19T02:59:56;23.45;;;15.43;;
13985;SDS011;7067;51.832;8.296;2022-08-19T03:02:21;18.23;;;16.40;;
13985;SDS011;7067;51.832;8.296;2022-08-19T03:04:46;18.85;;;17.00;;
13985;SDS011;7067;51.832;8.296;2022-08-19T03:07:15;17.42;;;15.77;;
13985;SDS011;7067;51.832;8.296;2022-08-19T03:09:41;17.80;;;15.98;;
13985;SDS011;7067;51.832;8.296;2022-08-19T03:12:07;16.73;;;15.13;;
13985;SDS011;7067;51.832;8.296;2022-08-19T03:14:33;18.27;;;15.10;;
13985;SDS011;7067;51.832;8.296;2022-08-19T03:16:59;16.95;;;15.20;;
13985;SDS011;7067;51.832;8.296;2022-08-19T03:19:25;16.50;;;14.80;;
13985;SDS011;7067;51.832;8.296;2022-08-19T03:21:50;19.60;;;16.30;;
13985;SDS011;7067;51.832;8.296;2022-08-19T03:24:16;18.98;;;17.10;;
13985;SDS011;7067;51.832;8.296;2022-08-19T03:26:45;19.73;;;17.15;;
13985;SDS011;7067;51.832;8.296;2022-08-19T03:29:13;20.58;;;18.45;;
13985;SDS011;7067;51.832;8.296;2022-08-19T03:31:39;19.52;;;17.30;;
13985;SDS011;7067;51.832;8.296;2022-08-19T03:34:08;18.98;;;16.98;;
13985;SDS011;7067;51.832;8.296;2022-08-19T03:36:34;20.15;;;16.77;;
13985;SDS011;7067;51.832;8.296;2022-08-19T03:39:00;19.17;;;17.25;;
13985;SDS011;7067;51.832;8.296;2022-08-19T03:41:27;19.25;;;17.38;;
13985;SDS011;7067;51.832;8.296;2022-08-19T03:43:55;19.38;;;17.48;;
13985;SDS011;7067;51.832;8.296;2022-08-19T03:46:21;20.58;;;17.23;;
13985;SDS011;7067;51.832;8.296;2022-08-19T03:48:50;20.33;;;18.17;;
13985;SDS011;7067;51.832;8.296;2022-08-19T03:51:24;22.38;;;19.27;;
13985;SDS011;7067;51.832;8.296;2022-08-19T03:53:51;20.60;;;18.58;;
13985;SDS011;7067;51.832;8.296;2022-08-19T03:56:18;19.67;;;17.88;;
13985;SDS011;7067;51.832;8.296;2022-08-19T03:58:44;21.67;;;19.52;;
13985;SDS011;7067;51.832;8.296;2022-08-19T04:01:10;24.98;;;18.52;;
13985;SDS011;7067;51.832;8.296;2022-08-19T04:03:38;22.02;;;19.40;;
13985;SDS011;7067;51.832;8.296;2022-08-19T04:06:15;20.17;;;18.10;;
13985;SDS011;7067;51.832;8.296;2022-08-19T04:08:41;22.67;;;19.85;;
13985;SDS011;7067;51.832;8.296;2022-08-19T04:11:08;25.42;;;20.55;;
13985;SDS011;7067;51.832;8.296;2022-08-19T04:13:35;27.48;;;20.25;;
13985;SDS011;7067;51.832;8.296;2022-08-19T04:16:00;24.10;;;19.88;;
13985;SDS011;7067;51.832;8.296;2022-08-19T04:18:26;25.08;;;21.13;;
13985;SDS011;7067;51.832;8.296;2022-08-19T04:20:54;22.48;;;20.23;;
13985;SDS011;7067;51.832;8.296;2022-08-19T04:23:20;21.02;;;18.73;;
13985;SDS011;7067;51.832;8.296;2022-08-19T04:25:45;20.67;;;18.55;;
13985;SDS011;7067;51.832;8.296;2022-08-19T04:28:11;24.95;;;20.70;;
13985;SDS011;7067;51.832;8.296;2022-08-19T04:30:48;22.42;;;20.15;;
13985;SDS011;7067;51.832;8.296;2022-08-19T04:33:15;21.33;;;19.27;;
13985;SDS011;7067;51.832;8.296;2022-08-19T04:35:44;21.40;;;19.17;;
13985;SDS011;7067;51.832;8.296;2022-08-19T04:38:12;27.25;;;20.38;;
13985;SDS011;7067;51.832;8.296;2022-08-19T04:40:42;24.45;;;20.02;;
13985;SDS011;7067;51.832;8.296;2022-08-19T04:43:27;22.30;;;19.73;;
13985;SDS011;7067;51.832;8.296;2022-08-19T04:45:53;20.38;;;18.38;;
13985;SDS011;7067;51.832;8.296;2022-08-19T04:48:19;22.75;;;20.48;;
13985;SDS011;7067;51.832;8.296;2022-08-19T04:50:50;23.00;;;20.60;;
13985;SDS011;7067;51.832;8.296;2022-08-19T04:53:18;23.52;;;19.45;;
13985;SDS011;7067;51.832;8.296;2022-08-19T04:55:43;24.63;;;20.55;;
13985;SDS011;7067;51.832;8.296;2022-08-19T04:58:09;34.92;;;20.58;;
13985;SDS011;7067;51.832;8.296;2022-08-19T05:00:37;24.88;;;20.48;;
13985;SDS011;7067;51.832;8.296;2022-08-19T05:03:03;22.60;;;20.27;;
13985;SDS011;7067;51.832;8.296;2022-08-19T05:05:28;25.35;;;21.17;;
13985;SDS011;7067;51.832;8.296;2022-08-19T05:07:56;22.95;;;20.58;;
13985;SDS011;7067;51.832;8.296;2022-08-19T05:10:21;26.92;;;20.40;;
13985;SDS011;7067;51.832;8.296;2022-08-19T05:12:46;25.02;;;20.60;;
13985;SDS011;7067;51.832;8.296;2022-08-19T05:15:12;24.15;;;21.67;;
13985;SDS011;7067;51.832;8.296;2022-08-19T05:17:37;23.38;;;20.90;;
13985;SDS011;7067;51.832;8.296;2022-08-19T05:20:03;23.23;;;20.80;;
13985;SDS011;7067;51.832;8.296;2022-08-19T05:22:48;23.45;;;21.08;;
13985;SDS011;7067;51.832;8.296;2022-08-19T05:25:15;22.75;;;20.45;;
13985;SDS011;7067;51.832;8.296;2022-08-19T05:27:43;23.00;;;20.70;;
13985;SDS011;7067;51.832;8.296;2022-08-19T05:30:10;30.83;;;20.58;;
13985;SDS011;7067;51.832;8.296;2022-08-19T05:32:36;23.98;;;21.50;;
13985;SDS011;7067;51.832;8.296;2022-08-19T05:35:01;27.83;;;20.55;;
13985;SDS011;7067;51.832;8.296;2022-08-19T05:37:27;25.92;;;21.55;;
13985;SDS011;7067;51.832;8.296;2022-08-19T05:39:53;22.27;;;20.00;;
13985;SDS011;7067;51.832;8.296;2022-08-19T05:42:19;27.27;;;22.10;;
13985;SDS011;7067;51.832;8.296;2022-08-19T05:44:47;24.13;;;20.80;;
13985;SDS011;7067;51.832;8.296;2022-08-19T05:47:14;24.02;;;20.40;;
13985;SDS011;7067;51.832;8.296;2022-08-19T05:49:40;25.33;;;22.52;;
13985;SDS011;7067;51.832;8.296;2022-08-19T05:52:09;25.60;;;22.10;;
13985;SDS011;7067;51.832;8.296;2022-08-19T05:54:38;23.77;;;21.42;;
13985;SDS011;7067;51.832;8.296;2022-08-19T05:57:06;23.75;;;21.20;;
13985;SDS011;7067;51.832;8.296;2022-08-19T05:59:32;27.13;;;21.58;;
13985;SDS011;7067;51.832;8.296;2022-08-19T06:02:00;28.40;;;22.67;;
13985;SDS011;7067;51.832;8.296;2022-08-19T06:04:26;23.10;;;20.60;;
13985;SDS011;7067;51.832;8.296;2022-08-19T06:06:52;25.08;;;22.40;;
13985;SDS011;7067;51.832;8.296;2022-08-19T06:09:19;24.95;;;21.85;;
13985;SDS011;7067;51.832;8.296;2022-08-19T06:11:46;27.45;;;22.85;;
13985;SDS011;7067;51.832;8.296;2022-08-19T06:14:19;30.88;;;21.90;;
13985;SDS011;7067;51.832;8.296;2022-08-19T06:16:47;24.45;;;21.88;;
13985;SDS011;7067;51.832;8.296;2022-08-19T06:19:14;28.73;;;21.92;;
13985;SDS011;7067;51.832;8.296;2022-08-19T06:21:42;24.95;;;22.02;;
13985;SDS011;7067;51.832;8.296;2022-08-19T06:24:11;27.65;;;23.10;;
13985;SDS011;7067;51.832;8.296;2022-08-19T06:26:39;27.17;;;24.00;;
13985;SDS011;7067;51.832;8.296;2022-08-19T06:29:06;23.27;;;20.85;;
13985;SDS011;7067;51.832;8.296;2022-08-19T06:31:33;27.35;;;23.90;;
13985;SDS011;7067;51.832;8.296;2022-08-19T06:34:00;27.13;;;23.27;;
13985;SDS011;7067;51.832;8.296;2022-08-19T06:36:31;29.65;;;22.33;;
13985;SDS011;7067;51.832;8.296;2022-08-19T06:39:05;25.45;;;22.92;;
13985;SDS011;7067;51.832;8.296;2022-08-19T06:41:36;23.98;;;21.48;;
13985;SDS011;7067;51.832;8.296;2022-08-19T06:44:03;24.13;;;21.50;;
13985;SDS011;7067;51.832;8.296;2022-08-19T06:46:29;25.63;;;22.92;;
13985;SDS011;7067;51.832;8.296;2022-08-19T06:48:55;27.35;;;22.30;;
13985;SDS011;7067;51.832;8.296;2022-08-19T06:51:21;24.50;;;21.65;;
13985;SDS011;7067;51.832;8.296;2022-08-19T06:53:48;24.85;;;21.42;;
13985;SDS011;7067;51.832;8.296;2022-08-19T06:56:15;27.23;;;20.17;;
13985;SDS011;7067;51.832;8.296;2022-08-19T06:58:41;25.95;;;21.05;;
13985;SDS011;7067;51.832;8.296;2022-08-19T07:01:07;25.52;;;21.83;;
13985;SDS011;7067;51.832;8.296;2022-08-19T07:03:34;21.45;;;18.58;;
13985;SDS011;7067;51.832;8.296;2022-08-19T07:06:03;20.70;;;17.58;;
13985;SDS011;7067;51.832;8.296;2022-08-19T07:08:34;19.00;;;17.02;;
13985;SDS011;7067;51.832;8.296;2022-08-19T07:11:01;17.48;;;15.57;;
13985;SDS011;7067;51.832;8.296;2022-08-19T07:13:31;17.15;;;15.32;;
13985;SDS011;7067;51.832;8.296;2022-08-19T07:16:02;16.52;;;14.07;;
13985;SDS011;7067;51.832;8.296;2022-08-19T07:18:38;16.85;;;13.35;;
13985;SDS011;7067;51.832;8.296;2022-08-19T07:21:05;15.57;;;11.98;;
13985;SDS011;7067;51.832;8.296;2022-08-19T07:23:34;15.57;;;13.65;;
13985;SDS011;7067;51.832;8.296;2022-08-19T07:26:10;13.45;;;12.23;;
13985;SDS011;7067;51.832;8.296;2022-08-19T07:28:41;13.07;;;11.77;;
13985;SDS011;7067;51.832;8.296;2022-08-19T07:31:09;14.52;;;12.02;;
13985;SDS011;7067;51.832;8.296;2022-08-19T07:33:37;17.47;;;12.43;;
13985;SDS011;7067;51.832;8.296;2022-08-19T07:36:06;14.80;;;12.75;;
13985;SDS011;7067;51.832;8.296;2022-08-19T07:40:58;12.90;;;10.77;;
13985;SDS011;7067;51.832;8.296;2022-08-19T07:43:24;13.60;;;10.00;;
13985;SDS011;7067;51.832;8.296;2022-08-19T07:45:51;11.98;;;10.30;;
13985;SDS011;7067;51.832;8.296;2022-08-19T07:48:20;11.90;;;10.05;;
13985;SDS011;7067;51.832;8.296;2022-08-19T07:50:49;11.03;;;9.43;;
13985;SDS011;7067;51.832;8.296;2022-08-19T07:53:15;14.65;;;10.32;;
13985;SDS011;7067;51.832;8.296;2022-08-19T07:55:40;14.50;;;11.90;;
13985;SDS011;7067;51.832;8.296;2022-08-19T07:58:06;11.07;;;9.98;;
13985;SDS011;7067;51.832;8.296;2022-08-19T08:00:32;15.88;;;10.10;;
13985;SDS011;7067;51.832;8.296;2022-08-19T08:02:57;16.65;;;10.38;;
13985;SDS011;7067;51.832;8.296;2022-08-19T08:05:23;19.63;;;8.40;;
13985;SDS011;7067;51.832;8.296;2022-08-19T08:08:07;13.32;;;8.88;;
13985;SDS011;7067;51.832;8.296;2022-08-19T08:10:51;12.02;;;8.45;;
13985;SDS011;7067;51.832;8.296;2022-08-19T08:13:16;9.18;;;8.40;;
13985;SDS011;7067;51.832;8.296;2022-08-19T08:15:42;9.82;;;7.45;;
13985;SDS011;7067;51.832;8.296;2022-08-19T08:18:10;9.13;;;7.60;;
13985;SDS011;7067;51.832;8.296;2022-08-19T08:20:36;8.73;;;7.82;;
13985;SDS011;7067;51.832;8.296;2022-08-19T08:23:02;8.73;;;7.82;;
13985;SDS011;7067;51.832;8.296;2022-08-19T08:25:46;9.63;;;7.68;;
13985;SDS011;7067;51.832;8.296;2022-08-19T08:28:13;8.30;;;7.47;;
13985;SDS011;7067;51.832;8.296;2022-08-19T08:30:38;7.30;;;6.72;;
13985;SDS011;7067;51.832;8.296;2022-08-19T08:33:06;9.00;;;7.82;;
13985;SDS011;7067;51.832;8.296;2022-08-19T08:35:32;8.82;;;6.07;;
13985;SDS011;7067;51.832;8.296;2022-08-19T08:37:58;7.65;;;6.13;;
13985;SDS011;7067;51.832;8.296;2022-08-19T08:42:58;8.55;;;5.72;;
13985;SDS011;7067;51.832;8.296;2022-08-19T08:45:35;5.70;;;5.30;;
13985;SDS011;7067;51.832;8.296;2022-08-19T08:48:15;5.25;;;4.80;;
13985;SDS011;7067;51.832;8.296;2022-08-19T08:50:46;5.28;;;4.88;;
13985;SDS011;7067;51.832;8.296;2022-08-19T08:53:12;4.90;;;3.92;;
13985;SDS011;7067;51.832;8.296;2022-08-19T08:55:40;5.75;;;5.22;;
13985;SDS011;7067;51.832;8.296;2022-08-19T08:58:16;6.30;;;5.40;;
13985;SDS011;7067;51.832;8.296;2022-08-19T09:00:46;6.53;;;5.88;;
13985;SDS011;7067;51.832;8.296;2022-08-19T09:03:24;5.72;;;5.00;;
13985;SDS011;7067;51.832;8.296;2022-08-19T09:11:10;6.38;;;5.03;;
13985;SDS011;7067;51.832;8.296;2022-08-19T09:14:17;5.28;;;4.78;;
13985;SDS011;7067;51.832;8.296;2022-08-19T09:16:43;7.40;;;5.47;;
13985;SDS011;7067;51.832;8.296;2022-08-19T09:19:09;5.53;;;4.80;;
13985;SDS011;7067;51.832;8.296;2022-08-19T09:21:35;5.68;;;3.85;;
13985;SDS011;7067;51.832;8.296;2022-08-19T09:24:01;6.65;;;4.40;;
13985;SDS011;7067;51.832;8.296;2022-08-19T09:26:27;4.57;;;4.03;;
13985;SDS011;7067;51.832;8.296;2022-08-19T09:28:53;3.88;;;3.47;;
13985;SDS011;7067;51.832;8.296;2022-08-19T09:31:23;4.13;;;3.83;;
13985;SDS011;7067;51.832;8.296;2022-08-19T09:33:50;4.30;;;4.00;;
13985;SDS011;7067;51.832;8.296;2022-08-19T09:36:17;7.45;;;4.60;;
13985;SDS011;7067;51.832;8.296;2022-08-19T09:38:45;5.43;;;3.50;;
13985;SDS011;7067;51.832;8.296;2022-08-19T09:41:17;4.10;;;3.35;;
13985;SDS011;7067;51.832;8.296;2022-08-19T09:43:45;4.85;;;4.03;;
13985;SDS011;7067;51.832;8.296;2022-08-19T09:46:12;4.55;;;4.15;;
13985;SDS011;7067;51.832;8.296;2022-08-19T09:48:40;6.72;;;3.22;;
13985;SDS011;7067;51.832;8.296;2022-08-19T09:51:07;3.40;;;2.90;;
13985;SDS011;7067;51.832;8.296;2022-08-19T09:53:36;5.18;;;2.78;;
13985;SDS011;7067;51.832;8.296;2022-08-19T09:56:03;6.30;;;2.83;;
13985;SDS011;7067;51.832;8.296;2022-08-19T09:58:29;4.38;;;3.72;;
13985;SDS011;7067;51.832;8.296;2022-08-19T10:00:55;3.75;;;2.90;;
13985;SDS011;7067;51.832;8.296;2022-08-19T10:03:21;6.47;;;2.85;;
13985;SDS011;7067;51.832;8.296;2022-08-19T10:05:46;3.55;;;3.25;;
13985;SDS011;7067;51.832;8.296;2022-08-19T10:08:19;5.20;;;3.05;;
13985;SDS011;7067;51.832;8.296;2022-08-19T10:10:50;4.13;;;3.28;;
13985;SDS011;7067;51.832;8.296;2022-08-19T10:13:17;3.03;;;2.83;;
13985;SDS011;7067;51.832;8.296;2022-08-19T10:15:47;3.47;;;2.55;;
13985;SDS011;7067;51.832;8.296;2022-08-19T10:18:15;2.75;;;2.10;;
13985;SDS011;7067;51.832;8.296;2022-08-19T10:20:42;3.75;;;2.50;;
13985;SDS011;7067;51.832;8.296;2022-08-19T10:23:08;3.13;;;2.85;;
13985;SDS011;7067;51.832;8.296;2022-08-19T10:25:34;6.70;;;2.72;;
13985;SDS011;7067;51.832;8.296;2022-08-19T10:27:59;4.55;;;3.63;;
13985;SDS011;7067;51.832;8.296;2022-08-19T10:30:25;3.13;;;2.67;;
13985;SDS011;7067;51.832;8.296;2022-08-19T10:32:50;3.88;;;2.83;;
13985;SDS011;7067;51.832;8.296;2022-08-19T10:35:16;5.07;;;3.17;;
13985;SDS011;7067;51.832;8.296;2022-08-19T10:37:42;3.13;;;2.83;;
13985;SDS011;7067;51.832;8.296;2022-08-19T10:40:07;4.80;;;2.63;;
13985;SDS011;7067;51.832;8.296;2022-08-19T10:42:35;3.40;;;3.10;;
13985;SDS011;7067;51.832;8.296;2022-08-19T10:45:01;4.45;;;4.13;;
13985;SDS011;7067;51.832;8.296;2022-08-19T10:47:27;4.95;;;3.40;;
13985;SDS011;7067;51.832;8.296;2022-08-19T10:49:53;3.25;;;2.58;;
13985;SDS011;7067;51.832;8.296;2022-08-19T10:52:41;4.15;;;3.20;;
13985;SDS011;7067;51.832;8.296;2022-08-19T10:55:08;3.67;;;3.17;;
13985;SDS011;7067;51.832;8.296;2022-08-19T10:57:52;3.95;;;3.47;;
13985;SDS011;7067;51.832;8.296;2022-08-19T11:00:17;2.88;;;2.55;;
13985;SDS011;7067;51.832;8.296;2022-08-19T11:02:44;3.90;;;2.97;;
13985;SDS011;7067;51.832;8.296;2022-08-19T11:05:09;4.78;;;3.22;;
13985;SDS011;7067;51.832;8.296;2022-08-19T11:07:36;3.38;;;3.17;;
13985;SDS011;7067;51.832;8.296;2022-08-19T11:10:03;4.93;;;3.65;;
13985;SDS011;7067;51.832;8.296;2022-08-19T11:12:29;3.85;;;3.35;;
13985;SDS011;7067;51.832;8.296;2022-08-19T11:14:54;4.15;;;3.75;;
13985;SDS011;7067;51.832;8.296;2022-08-19T11:17:20;3.70;;;3.40;;
13985;SDS011;7067;51.832;8.296;2022-08-19T11:19:48;3.63;;;3.33;;
13985;SDS011;7067;51.832;8.296;2022-08-19T11:22:14;3.70;;;3.40;;
13985;SDS011;7067;51.832;8.296;2022-08-19T11:24:39;3.75;;;3.45;;
13985;SDS011;7067;51.832;8.296;2022-08-19T11:27:06;3.42;;;3.13;;
13985;SDS011;7067;51.832;8.296;2022-08-19T11:29:34;8.07;;;2.80;;
13985;SDS011;7067;51.832;8.296;2022-08-19T11:32:03;2.80;;;2.55;;
13985;SDS011;7067;51.832;8.296;2022-08-19T11:34:31;3.08;;;2.83;;
13985;SDS011;7067;51.832;8.296;2022-08-19T11:36:57;3.28;;;3.05;;
13985;SDS011;7067;51.832;8.296;2022-08-19T11:39:23;3.30;;;2.95;;
13985;SDS011;7067;51.832;8.296;2022-08-19T11:41:49;4.60;;;2.65;;
13985;SDS011;7067;51.832;8.296;2022-08-19T11:44:15;5.45;;;2.75;;
13985;SDS011;7067;51.832;8.296;2022-08-19T11:46:42;4.63;;;2.78;;
13985;SDS011;7067;51.832;8.296;2022-08-19T11:49:11;5.50;;;2.78;;
13985;SDS011;7067;51.832;8.296;2022-08-19T11:51:37;5.75;;;3.15;;
13985;SDS011;7067;51.832;8.296;2022-08-19T11:54:04;4.07;;;3.55;;
13985;SDS011;7067;51.832;8.296;2022-08-19T11:56:29;6.13;;;2.92;;
13985;SDS011;7067;51.832;8.296;2022-08-19T11:58:55;4.25;;;2.63;;
13985;SDS011;7067;51.832;8.296;2022-08-19T12:01:22;4.40;;;2.72;;
13985;SDS011;7067;51.832;8.296;2022-08-19T12:03:49;2.58;;;2.38;;
13985;SDS011;7067;51.832;8.296;2022-08-19T12:06:17;5.35;;;2.17;;
13985;SDS011;7067;51.832;8.296;2022-08-19T12:08:44;4.80;;;2.40;;
13985;SDS011;7067;51.832;8.296;2022-08-19T12:11:10;2.45;;;2.25;;
13985;SDS011;7067;51.832;8.296;2022-08-19T12:13:37;2.90;;;2.05;;
13985;SDS011;7067;51.832;8.296;2022-08-19T12:16:07;3.33;;;2.88;;
13985;SDS011;7067;51.832;8.296;2022-08-19T12:18:36;3.30;;;2.75;;
13985;SDS011;7067;51.832;8.296;2022-08-19T12:21:02;2.58;;;2.45;;
13985;SDS011;7067;51.832;8.296;2022-08-19T12:23:28;3.50;;;2.30;;
13985;SDS011;7067;51.832;8.296;2022-08-19T12:25:54;2.55;;;2.28;;
13985;SDS011;7067;51.832;8.296;2022-08-19T12:28:22;3.03;;;2.47;;
13985;SDS011;7067;51.832;8.296;2022-08-19T12:30:49;3.65;;;2.63;;
13985;SDS011;7067;51.832;8.296;2022-08-19T12:33:16;5.28;;;2.90;;
13985;SDS011;7067;51.832;8.296;2022-08-19T12:35:43;4.70;;;2.85;;
13985;SDS011;7067;51.832;8.296;2022-08-19T12:38:10;4.28;;;2.97;;
13985;SDS011;7067;51.832;8.296;2022-08-19T12:40:36;4.35;;;2.42;;
13985;SDS011;7067;51.832;8.296;2022-08-19T12:43:02;3.80;;;2.60;;
13985;SDS011;7067;51.832;8.296;2022-08-19T12:45:27;3.60;;;3.22;;
13985;SDS011;7067;51.832;8.296;2022-08-19T12:47:53;3.88;;;2.58;;
13985;SDS011;7067;51.832;8.296;2022-08-19T12:50:19;2.22;;;2.03;;
13985;SDS011;7067;51.832;8.296;2022-08-19T12:52:46;3.22;;;2.05;;
13985;SDS011;7067;51.832;8.296;2022-08-19T12:55:12;2.35;;;1.95;;
13985;SDS011;7067;51.832;8.296;2022-08-19T12:57:37;2.53;;;1.67;;
13985;SDS011;7067;51.832;8.296;2022-08-19T13:00:07;2.47;;;2.20;;
13985;SDS011;7067;51.832;8.296;2022-08-19T13:02:38;4.07;;;2.40;;
13985;SDS011;7067;51.832;8.296;2022-08-19T13:05:06;5.90;;;3.10;;
13985;SDS011;7067;51.832;8.296;2022-08-19T13:07:33;2.50;;;2.00;;
13985;SDS011;7067;51.832;8.296;2022-08-19T13:09:59;3.55;;;2.53;;
13985;SDS011;7067;51.832;8.296;2022-08-19T13:12:25;3.05;;;2.50;;
13985;SDS011;7067;51.832;8.296;2022-08-19T13:14:51;2.47;;;2.22;;
13985;SDS011;7067;51.832;8.296;2022-08-19T13:17:18;2.83;;;2.42;;
13985;SDS011;7067;51.832;8.296;2022-08-19T13:19:44;2.47;;;2.28;;
13985;SDS011;7067;51.832;8.296;2022-08-19T13:22:09;2.65;;;2.45;;
13985;SDS011;7067;51.832;8.296;2022-08-19T13:24:35;2.80;;;2.60;;
13985;SDS011;7067;51.832;8.296;2022-08-19T13:27:01;2.38;;;2.10;;
13985;SDS011;7067;51.832;8.296;2022-08-19T13:29:27;3.80;;;2.75;;
13985;SDS011;7067;51.832;8.296;2022-08-19T13:32:11;5.00;;;2.33;;
13985;SDS011;7067;51.832;8.296;2022-08-19T13:34:55;3.38;;;2.55;;
13985;SDS011;7067;51.832;8.296;2022-08-19T13:37:20;2.75;;;2.08;;
13985;SDS011;7067;51.832;8.296;2022-08-19T13:40:06;2.22;;;2.10;;
13985;SDS011;7067;51.832;8.296;2022-08-19T13:42:36;7.22;;;2.17;;
13985;SDS011;7067;51.832;8.296;2022-08-19T13:45:01;2.42;;;2.25;;
13985;SDS011;7067;51.832;8.296;2022-08-19T13:47:27;4.05;;;2.47;;
13985;SDS011;7067;51.832;8.296;2022-08-19T13:49:52;2.55;;;2.10;;
13985;SDS011;7067;51.832;8.296;2022-08-19T13:52:17;9.90;;;2.53;;
13985;SDS011;7067;51.832;8.296;2022-08-19T13:54:43;2.22;;;2.08;;
13985;SDS011;7067;51.832;8.296;2022-08-19T13:57:08;4.43;;;2.25;;
13985;SDS011;7067;51.832;8.296;2022-08-19T13:59:34;2.65;;;1.80;;
13985;SDS011;7067;51.832;8.296;2022-08-19T14:01:59;2.60;;;2.33;;
13985;SDS011;7067;51.832;8.296;2022-08-19T14:04:25;3.47;;;2.35;;
13985;SDS011;7067;51.832;8.296;2022-08-19T14:06:50;2.67;;;2.00;;
13985;SDS011;7067;51.832;8.296;2022-08-19T14:09:16;2.45;;;2.25;;
13985;SDS011;7067;51.832;8.296;2022-08-19T14:11:41;3.00;;;1.83;;
13985;SDS011;7067;51.832;8.296;2022-08-19T14:14:06;6.40;;;2.30;;
13985;SDS011;7067;51.832;8.296;2022-08-19T14:16:32;2.28;;;2.00;;
13985;SDS011;7067;51.832;8.296;2022-08-19T14:18:57;2.63;;;2.00;;
13985;SDS011;7067;51.832;8.296;2022-08-19T14:21:23;2.30;;;2.10;;
13985;SDS011;7067;51.832;8.296;2022-08-19T14:23:50;3.13;;;2.47;;
13985;SDS011;7067;51.832;8.296;2022-08-19T14:26:17;1.77;;;1.67;;
13985;SDS011;7067;51.832;8.296;2022-08-19T14:28:44;3.38;;;2.28;;
13985;SDS011;7067;51.832;8.296;2022-08-19T14:31:10;2.25;;;2.15;;
13985;SDS011;7067;51.832;8.296;2022-08-19T14:33:41;5.57;;;2.70;;
13985;SDS011;7067;51.832;8.296;2022-08-19T14:36:07;2.47;;;2.28;;
13985;SDS011;7067;51.832;8.296;2022-08-19T14:38:32;2.20;;;1.98;;
13985;SDS011;7067;51.832;8.296;2022-08-19T14:41:05;2.00;;;1.90;;
13985;SDS011;7067;51.832;8.296;2022-08-19T14:43:44;5.15;;;2.40;;
13985;SDS011;7067;51.832;8.296;2022-08-19T14:46:11;2.70;;;2.50;;
13985;SDS011;7067;51.832;8.296;2022-08-19T14:48:40;3.40;;;2.42;;
13985;SDS011;7067;51.832;8.296;2022-08-19T14:51:06;3.55;;;2.45;;
13985;SDS011;7067;51.832;8.296;2022-08-19T14:53:32;3.00;;;2.22;;
13985;SDS011;7067;51.832;8.296;2022-08-19T14:55:59;4.05;;;2.13;;
13985;SDS011;7067;51.832;8.296;2022-08-19T14:58:25;2.63;;;2.13;;
13985;SDS011;7067;51.832;8.296;2022-08-19T15:00:51;2.97;;;2.70;;